createdAt,value
2018-11-12T00:01:03.443Z,4.23
2018-11-12T00:03:32.854Z,3.40
2018-11-12T00:06:02.407Z,7.15
2018-11-12T00:08:31.804Z,4.50
2018-11-12T00:11:02.422Z,4.90
2018-11-12T00:13:31.830Z,6.07
2018-11-12T00:16:02.440Z,4.07
2018-11-12T00:18:31.823Z,6.60
2018-11-12T00:21:02.430Z,3.40
2018-11-12T00:23:31.830Z,7.53
2018-11-12T00:26:02.477Z,5.87
2018-11-12T00:28:31.860Z,6.40
2018-11-12T00:31:02.464Z,4.87
2018-11-12T00:33:31.855Z,5.93
2018-11-12T00:36:02.475Z,6.77
2018-11-12T00:38:31.884Z,3.30
2018-11-12T00:41:02.530Z,4.27
2018-11-12T00:43:31.906Z,7.93
2018-11-12T00:46:02.599Z,8.17
2018-11-12T00:48:31.975Z,9.23
2018-11-12T00:51:02.407Z,4.50
2018-11-12T00:53:31.770Z,4.27
2018-11-12T00:56:02.398Z,2.60
2018-11-12T00:58:31.787Z,4.13
2018-11-12T01:01:02.609Z,6.37
2018-11-12T01:03:31.995Z,4.17
2018-11-12T01:06:02.411Z,5.17
2018-11-12T01:08:31.778Z,4.70
2018-11-12T01:11:02.402Z,4.33
2018-11-12T01:13:31.778Z,4.47
2018-11-12T01:16:02.464Z,5.23
2018-11-12T01:18:31.846Z,5.07
2018-11-12T01:21:02.487Z,4.70
2018-11-12T01:23:31.864Z,5.00
2018-11-12T01:26:02.635Z,4.60
2018-11-12T01:28:32.130Z,5.23
2018-11-12T01:31:05.886Z,5.30
2018-11-12T01:33:36.975Z,4.50
2018-11-12T01:36:06.770Z,4.27
2018-11-12T01:38:36.170Z,3.83
2018-11-12T01:41:05.758Z,4.27
2018-11-12T01:43:35.126Z,6.17
2018-11-12T01:46:04.585Z,8.50
2018-11-12T01:48:33.990Z,3.50
2018-11-12T01:51:03.378Z,6.17
2018-11-12T01:53:32.762Z,4.73
2018-11-12T01:56:02.851Z,6.65
2018-11-12T01:58:32.251Z,5.30
2018-11-12T02:01:02.805Z,3.58
2018-11-12T02:03:32.177Z,4.10
2018-11-12T02:06:02.855Z,4.50
2018-11-12T02:08:32.259Z,5.13
2018-11-12T02:11:02.887Z,4.00
2018-11-12T02:13:32.348Z,4.00
2018-11-12T02:16:02.801Z,3.92
2018-11-12T02:18:32.254Z,5.30
2018-11-12T02:21:02.766Z,3.88
2018-11-12T02:23:32.373Z,3.90
2018-11-12T02:26:02.835Z,7.60
2018-11-12T02:28:32.336Z,3.13
2018-11-12T02:31:02.762Z,3.36
2018-11-12T02:33:32.212Z,2.87
2018-11-12T02:36:02.874Z,2.67
2018-11-12T02:38:32.263Z,2.37
2018-11-12T02:41:02.915Z,4.23
2018-11-12T02:43:32.366Z,4.20
2018-11-12T02:46:02.826Z,6.15
2018-11-12T02:48:32.228Z,4.00
2018-11-12T02:51:02.860Z,4.33
2018-11-12T02:53:32.253Z,5.20
2018-11-12T02:56:02.936Z,5.67
2018-11-12T02:58:32.334Z,4.90
2018-11-12T03:01:02.822Z,3.92
2018-11-12T03:03:32.208Z,3.53
2018-11-12T03:06:02.960Z,2.73
2018-11-12T03:08:32.324Z,3.73
2018-11-12T03:11:02.821Z,3.50
2018-11-12T03:13:32.187Z,2.03
2018-11-12T03:16:02.812Z,4.30
2018-11-12T03:18:32.226Z,4.90
2018-11-12T03:21:02.838Z,4.43
2018-11-12T03:23:32.509Z,5.87
2018-11-12T03:26:02.866Z,4.97
2018-11-12T03:28:32.257Z,4.67
2018-11-12T03:31:02.867Z,4.93
2018-11-12T03:33:32.282Z,2.73
2018-11-12T03:36:02.959Z,3.53
2018-11-12T03:38:32.347Z,3.17
2018-11-12T03:41:02.940Z,3.94
2018-11-12T03:43:32.404Z,4.13
2018-11-12T03:46:02.927Z,6.10
2018-11-12T03:48:32.303Z,4.40
2018-11-12T03:51:02.844Z,4.72
2018-11-12T03:53:32.266Z,5.17
2018-11-12T03:56:02.906Z,5.73
2018-11-12T03:58:32.303Z,4.43
2018-11-12T04:01:02.956Z,6.30
2018-11-12T04:03:32.350Z,7.03
2018-11-12T04:06:02.950Z,3.88
2018-11-12T04:08:32.314Z,8.73
2018-11-12T04:11:02.935Z,2.20
2018-11-12T04:13:32.330Z,4.40
2018-11-12T04:16:02.952Z,5.00
2018-11-12T04:18:32.375Z,5.77
2018-11-12T04:21:02.979Z,5.30
2018-11-12T04:23:32.547Z,6.60
2018-11-12T04:26:02.839Z,8.40
2018-11-12T04:28:32.373Z,4.13
2018-11-12T04:31:02.876Z,4.48
2018-11-12T04:33:32.264Z,4.13
2018-11-12T04:36:02.895Z,5.30
2018-11-12T04:38:32.290Z,6.37
2018-11-12T04:41:02.930Z,4.47
2018-11-12T04:43:32.411Z,6.23
2018-11-12T04:46:03.038Z,5.46
2018-11-12T04:48:32.444Z,4.90
2018-11-12T04:51:02.919Z,8.08
2018-11-12T04:53:32.384Z,8.50
2018-11-12T04:56:03.016Z,5.97
2018-11-12T04:58:32.412Z,4.60
2018-11-12T05:01:02.919Z,5.16
2018-11-12T05:03:32.322Z,7.37
2018-11-12T05:06:03.022Z,6.80
2018-11-12T05:08:32.410Z,5.23
2018-11-12T05:11:02.901Z,12.64
2018-11-12T05:13:32.291Z,7.30
2018-11-12T05:16:02.947Z,16.63
2018-11-12T05:18:32.331Z,17.30
2018-11-12T05:21:03.007Z,8.30
2018-11-12T05:23:32.366Z,7.87
2018-11-12T05:26:03.037Z,12.83
2018-11-12T05:28:32.439Z,9.17
2018-11-12T05:31:02.902Z,7.98
2018-11-12T05:33:32.293Z,5.40
2018-11-12T05:36:03.149Z,8.33
2018-11-12T05:38:32.876Z,8.00
2018-11-12T05:41:03.235Z,6.72
2018-11-12T05:43:32.879Z,7.93
2018-11-12T05:46:03.026Z,9.75
2018-11-12T05:48:32.457Z,7.40
2018-11-12T05:51:03.082Z,6.80
2018-11-12T05:53:32.482Z,10.07
2018-11-12T05:56:03.090Z,7.00
2018-11-12T05:58:32.487Z,7.23
2018-11-12T06:01:03.123Z,6.97
2018-11-12T06:03:32.622Z,12.43
2018-11-12T06:06:03.138Z,8.66
2018-11-12T06:08:32.571Z,10.73
2018-11-12T06:11:03.216Z,6.43
2018-11-12T06:13:32.607Z,11.57
2018-11-12T06:16:03.243Z,6.83
2018-11-12T06:18:32.630Z,7.17
2018-11-12T06:21:03.218Z,8.20
2018-11-12T06:23:32.593Z,5.83
2018-11-12T06:26:01.997Z,7.23
2018-11-12T06:28:31.399Z,6.13
2018-11-12T06:31:00.815Z,6.73
2018-11-12T06:33:30.175Z,7.80
2018-11-12T06:35:59.586Z,6.57
2018-11-12T06:38:28.961Z,6.20
2018-11-12T06:40:58.390Z,6.73
2018-11-12T06:43:27.787Z,5.60
2018-11-12T06:45:57.159Z,7.20
2018-11-12T06:48:26.542Z,7.83
2018-11-12T06:50:55.915Z,6.20
2018-11-12T06:53:25.385Z,12.40
2018-11-12T06:55:54.721Z,7.13
2018-11-12T06:58:24.124Z,8.13
2018-11-12T07:00:53.569Z,9.10
2018-11-12T07:03:22.939Z,7.03
2018-11-12T07:05:52.338Z,13.17
2018-11-12T07:08:21.719Z,13.25
2018-11-12T07:10:51.107Z,8.40
2018-11-12T07:13:20.595Z,9.20
2018-11-12T07:15:49.947Z,10.73
2018-11-12T07:18:19.394Z,8.77
2018-11-12T07:20:48.790Z,10.90
2018-11-12T07:23:18.175Z,8.10
2018-11-12T07:25:47.574Z,10.10
2018-11-12T07:28:16.967Z,13.15
2018-11-12T07:30:46.386Z,9.30
2018-11-12T07:33:15.782Z,7.27
2018-11-12T07:35:45.172Z,8.17
2018-11-12T07:38:14.559Z,7.40
2018-11-12T07:40:44.002Z,10.07
2018-11-12T07:43:13.387Z,7.97
2018-11-12T07:45:42.783Z,6.97
2018-11-12T07:48:12.166Z,8.57
2018-11-12T07:50:41.583Z,19.20
2018-11-12T07:53:11.002Z,17.42
2018-11-12T07:55:40.406Z,15.50
2018-11-12T07:58:09.839Z,11.83
2018-11-12T08:00:39.255Z,14.20
2018-11-12T08:03:10.196Z,8.20
2018-11-12T08:05:40.283Z,12.03
2018-11-12T08:08:10.141Z,11.53
2018-11-12T08:10:39.587Z,12.50
2018-11-12T08:13:08.998Z,17.87
2018-11-12T08:15:38.418Z,12.50
2018-11-12T08:18:07.829Z,16.50
2018-11-12T08:20:37.220Z,12.37
2018-11-12T08:23:06.676Z,10.20
2018-11-12T08:25:36.043Z,9.50
2018-11-12T08:28:05.466Z,13.60
2018-11-12T08:30:34.907Z,10.77
2018-11-12T08:33:04.335Z,9.10
2018-11-12T08:35:33.690Z,9.07
2018-11-12T08:38:03.091Z,8.27
2018-11-12T08:40:32.547Z,8.10
2018-11-12T08:43:01.870Z,10.07
2018-11-12T08:45:31.275Z,10.27
2018-11-12T08:48:00.669Z,9.13
2018-11-12T08:50:30.054Z,8.03
2018-11-12T08:52:59.446Z,8.68
2018-11-12T08:55:30.167Z,9.30
2018-11-12T08:58:02.669Z,7.57
2018-11-12T09:00:32.201Z,7.17
2018-11-12T09:03:01.599Z,9.60
2018-11-12T09:05:31.578Z,6.43
2018-11-12T09:08:02.338Z,6.60
2018-11-12T09:10:33.963Z,5.63
2018-11-12T09:13:03.447Z,9.70
2018-11-12T09:15:32.836Z,9.40
2018-11-12T09:18:02.499Z,9.23
2018-11-12T09:20:32.018Z,8.23
2018-11-12T09:23:01.406Z,10.23
2018-11-12T09:25:30.799Z,7.90
2018-11-12T09:28:00.176Z,9.87
2018-11-12T09:30:30.531Z,10.20
2018-11-12T09:32:59.714Z,10.33
2018-11-12T09:35:31.196Z,6.33
2018-11-12T09:38:01.807Z,5.37
2018-11-12T09:40:34.815Z,8.77
2018-11-12T09:43:04.262Z,9.77
2018-11-12T09:45:33.786Z,11.23
2018-11-12T09:48:03.207Z,14.03
2018-11-12T09:50:32.628Z,9.53
2018-11-12T09:53:02.619Z,11.47
2018-11-12T09:55:32.987Z,11.30
2018-11-12T09:58:08.181Z,15.07
2018-11-12T10:00:37.972Z,13.53
2018-11-12T10:03:07.735Z,12.30
2018-11-12T10:05:38.239Z,14.23
2018-11-12T10:08:13.028Z,13.25
2018-11-12T10:10:49.667Z,14.70
2018-11-12T10:13:26.213Z,12.50
2018-11-12T10:15:55.974Z,15.90
2018-11-12T10:18:22.972Z,16.67
2018-11-12T10:20:52.398Z,14.03
2018-11-12T10:23:22.289Z,11.80
2018-11-12T10:25:51.939Z,13.90
2018-11-12T10:28:22.431Z,13.60
2018-11-12T10:30:51.978Z,9.17
2018-11-12T10:33:22.256Z,11.80
2018-11-12T10:35:51.662Z,10.87
2018-11-12T10:38:21.085Z,15.13
2018-11-12T10:40:50.668Z,9.57
2018-11-12T10:43:20.021Z,12.93
2018-11-12T10:45:49.484Z,13.47
2018-11-12T10:48:18.893Z,15.60
2018-11-12T10:50:56.248Z,10.53
2018-11-12T10:53:17.670Z,12.73
2018-11-12T10:55:47.341Z,7.60
2018-11-12T10:58:16.616Z,10.30
2018-11-12T11:00:51.273Z,9.73
2018-11-12T11:03:25.823Z,13.87
2018-11-12T11:05:55.778Z,14.57
2018-11-12T11:08:25.164Z,9.63
2018-11-12T11:10:54.538Z,10.30
2018-11-12T11:13:24.051Z,13.27
2018-11-12T11:15:53.439Z,10.60
2018-11-12T11:18:22.846Z,8.53
2018-11-12T11:20:52.247Z,9.00
2018-11-12T11:23:21.678Z,13.10
2018-11-12T11:25:51.068Z,6.10
2018-11-12T11:28:20.450Z,8.60
2018-11-12T11:30:49.895Z,10.63
2018-11-12T11:33:19.220Z,8.73
2018-11-12T11:35:48.578Z,9.30
2018-11-12T11:38:17.967Z,8.83
2018-11-12T11:40:47.378Z,12.03
2018-11-12T11:43:16.694Z,7.50
2018-11-12T11:45:46.062Z,8.37
2018-11-12T11:48:15.540Z,7.33
2018-11-12T11:50:44.804Z,5.23
2018-11-12T11:53:14.161Z,7.10
2018-11-12T11:55:43.518Z,7.73
2018-11-12T11:58:12.895Z,7.53
2018-11-12T12:00:42.256Z,5.53
2018-11-12T12:03:11.631Z,7.10
2018-11-12T12:05:41.057Z,6.10
2018-11-12T12:08:10.515Z,7.77
2018-11-12T12:10:39.922Z,5.97
2018-11-12T12:13:09.321Z,9.23
2018-11-12T12:15:38.712Z,6.20
2018-11-12T12:18:08.098Z,5.00
2018-11-12T12:20:37.470Z,9.30
2018-11-12T12:23:06.863Z,4.57
2018-11-12T12:25:36.351Z,5.73
2018-11-12T12:28:06.250Z,10.73
2018-11-12T12:30:35.731Z,7.90
2018-11-12T12:33:05.153Z,5.73
2018-11-12T12:35:34.547Z,7.07
2018-11-12T12:38:03.911Z,6.07
2018-11-12T12:40:33.287Z,9.00
2018-11-12T12:43:02.667Z,4.50
2018-11-12T12:45:32.207Z,5.77
2018-11-12T12:48:01.474Z,6.50
2018-11-12T12:50:30.913Z,6.23
2018-11-12T12:53:00.278Z,6.50
2018-11-12T12:55:29.725Z,9.13
2018-11-12T12:57:59.063Z,6.47
2018-11-12T13:00:28.545Z,5.43
2018-11-12T13:02:57.922Z,10.40
2018-11-12T13:05:27.454Z,9.53
2018-11-12T13:07:56.838Z,7.60
2018-11-12T13:10:26.295Z,10.77
2018-11-12T13:12:55.654Z,6.63
2018-11-12T13:15:25.123Z,6.63
2018-11-12T13:17:54.507Z,7.10
2018-11-12T13:20:25.026Z,6.50
2018-11-12T13:22:54.438Z,9.08
2018-11-12T13:25:23.799Z,6.77
2018-11-12T13:27:53.191Z,5.60
2018-11-12T13:30:23.578Z,8.23
2018-11-12T13:32:53.323Z,5.03
2018-11-12T13:35:24.135Z,4.70
2018-11-12T13:37:53.518Z,8.50
2018-11-12T13:40:24.043Z,5.30
2018-11-12T13:42:55.014Z,8.70
2018-11-12T13:45:24.926Z,6.50
2018-11-12T13:47:54.640Z,3.63
2018-11-12T13:50:25.537Z,8.60
2018-11-12T13:52:55.286Z,7.30
2018-11-12T13:55:25.202Z,9.80
2018-11-12T13:57:54.618Z,7.27
2018-11-12T14:00:29.441Z,6.60
2018-11-12T14:02:59.255Z,2.37
2018-11-12T14:05:29.455Z,5.43
2018-11-12T14:07:58.866Z,6.20
2018-11-12T14:10:29.600Z,6.10
2018-11-12T14:12:59.730Z,9.53
2018-11-12T14:15:29.218Z,11.90
2018-11-12T14:17:58.638Z,5.83
2018-11-12T14:20:28.275Z,7.40
2018-11-12T14:22:57.613Z,4.83
2018-11-12T14:25:27.258Z,7.57
2018-11-12T14:27:57.829Z,6.53
2018-11-12T14:30:28.574Z,4.50
2018-11-12T14:32:58.227Z,3.77
2018-11-12T14:35:28.206Z,6.83
2018-11-12T14:37:57.586Z,4.83
2018-11-12T14:40:27.043Z,6.03
2018-11-12T14:42:56.450Z,6.23
2018-11-12T14:45:25.935Z,3.53
2018-11-12T14:47:55.254Z,6.70
2018-11-12T14:50:24.736Z,6.73
2018-11-12T14:52:54.409Z,4.30
2018-11-12T14:55:23.890Z,6.80
2018-11-12T14:57:53.378Z,7.00
2018-11-12T15:00:24.640Z,8.93
2018-11-12T15:02:54.443Z,7.77
2018-11-12T15:05:25.062Z,4.27
2018-11-12T15:07:54.466Z,5.20
2018-11-12T15:10:23.855Z,5.40
2018-11-12T15:12:53.278Z,4.50
2018-11-12T15:15:22.976Z,6.10
2018-11-12T15:17:52.643Z,5.97
2018-11-12T15:20:22.382Z,6.33
2018-11-12T15:22:52.067Z,4.13
2018-11-12T15:25:24.474Z,9.30
2018-11-12T15:27:53.867Z,6.17
2018-11-12T15:30:24.333Z,7.03
2018-11-12T15:32:55.046Z,10.78
2018-11-12T15:35:24.685Z,4.17
2018-11-12T15:37:54.296Z,5.40
2018-11-12T15:40:23.991Z,8.50
2018-11-12T15:42:53.628Z,4.97
2018-11-12T15:45:24.422Z,7.50
2018-11-12T15:47:53.870Z,5.53
2018-11-12T15:50:39.929Z,6.20
2018-11-12T15:53:09.334Z,10.13
2018-11-12T15:55:38.752Z,4.83
2018-11-12T15:58:08.308Z,5.43
2018-11-12T16:00:37.674Z,4.83
2018-11-12T16:03:07.218Z,4.97
2018-11-12T16:05:36.600Z,5.93
2018-11-12T16:08:06.276Z,5.37
2018-11-12T16:10:35.677Z,3.53
2018-11-12T16:13:05.342Z,4.12
2018-11-12T16:15:35.007Z,5.90
2018-11-12T16:18:04.648Z,6.27
2018-11-12T16:20:34.303Z,7.97
2018-11-12T16:23:04.036Z,9.07
2018-11-12T16:25:33.718Z,8.47
2018-11-12T16:28:03.284Z,3.63
2018-11-12T16:30:32.947Z,5.30
2018-11-12T16:33:02.629Z,5.47
2018-11-12T16:35:32.307Z,7.30
2018-11-12T16:38:02.045Z,2.67
2018-11-12T16:40:31.757Z,4.47
2018-11-12T16:43:01.381Z,5.97
2018-11-12T16:45:30.907Z,9.23
2018-11-12T16:48:00.295Z,5.30
2018-11-12T16:50:29.775Z,12.43
2018-11-12T16:52:59.180Z,4.20
2018-11-12T16:55:28.595Z,9.10
2018-11-12T16:57:57.982Z,6.27
2018-11-12T17:00:27.386Z,6.80
2018-11-12T17:02:56.803Z,8.23
2018-11-12T17:05:26.213Z,6.53
2018-11-12T17:07:55.599Z,5.47
2018-11-12T17:10:26.130Z,8.30
2018-11-12T17:12:55.561Z,5.07
2018-11-12T17:15:24.968Z,3.73
2018-11-12T17:17:54.425Z,6.40
2018-11-12T17:20:23.859Z,11.33
2018-11-12T17:22:53.293Z,8.60
2018-11-12T17:25:22.869Z,10.33
2018-11-12T17:27:52.552Z,10.50
2018-11-12T17:30:22.675Z,12.53
2018-11-12T17:32:52.323Z,2.90
2018-11-12T17:35:22.617Z,6.60
2018-11-12T17:37:52.419Z,3.40
2018-11-12T17:40:24.057Z,8.37
2018-11-12T17:42:54.227Z,5.73
2018-11-12T17:45:25.854Z,7.90
2018-11-12T17:47:56.038Z,4.87
2018-11-12T17:50:25.411Z,5.60
2018-11-12T17:52:54.855Z,8.23
2018-11-12T17:55:24.364Z,5.57
2018-11-12T17:57:53.778Z,5.47
2018-11-12T18:00:25.488Z,7.13
2018-11-12T18:02:54.944Z,19.73
2018-11-12T18:05:24.352Z,5.70
2018-11-12T18:07:53.839Z,4.77
2018-11-12T18:10:23.162Z,5.93
2018-11-12T18:12:52.546Z,11.00
2018-11-12T18:15:23.201Z,14.83
2018-11-12T18:17:52.956Z,9.10
2018-11-12T18:20:25.015Z,5.40
2018-11-12T18:22:55.408Z,4.80
2018-11-12T18:25:25.139Z,7.50
2018-11-12T18:27:55.372Z,7.00
2018-11-12T18:30:26.747Z,8.40
2018-11-12T18:32:57.346Z,5.57
2018-11-12T18:35:26.841Z,9.07
2018-11-12T18:37:56.601Z,5.17
2018-11-12T18:40:27.400Z,12.23
2018-11-12T18:42:56.876Z,18.03
2018-11-12T18:45:27.221Z,9.47
2018-11-12T18:47:57.157Z,4.10
2018-11-12T18:50:28.926Z,9.27
2018-11-12T18:52:58.512Z,12.00
2018-11-12T18:55:27.890Z,11.23
2018-11-12T18:57:58.081Z,13.27
2018-11-12T19:00:28.054Z,9.50
2018-11-12T19:02:57.698Z,7.25
2018-11-12T19:05:28.492Z,15.20
2018-11-12T19:07:59.527Z,11.13
2018-11-12T19:10:31.401Z,5.90
2018-11-12T19:13:00.928Z,5.20
2018-11-12T19:15:32.001Z,5.60
2018-11-12T19:18:04.273Z,11.05
2018-11-12T19:20:33.840Z,10.00
2018-11-12T19:23:03.397Z,10.43
2018-11-12T19:25:32.874Z,6.40
2018-11-12T19:28:02.618Z,8.17
2018-11-12T19:30:32.262Z,6.10
2018-11-12T19:33:01.697Z,5.50
2018-11-12T19:35:32.375Z,5.97
2018-11-12T19:38:01.929Z,6.00
2018-11-12T19:40:32.338Z,5.47
2018-11-12T19:43:01.719Z,6.83
2018-11-12T19:45:31.438Z,10.77
2018-11-12T19:48:01.898Z,10.43
2018-11-12T19:50:33.496Z,12.10
2018-11-12T19:53:05.112Z,7.40
2018-11-12T19:55:37.140Z,8.00
2018-11-12T19:58:09.339Z,7.07
2018-11-12T20:00:41.552Z,9.00
2018-11-12T20:03:13.627Z,9.83
2018-11-12T20:05:45.704Z,7.70
2018-11-12T20:08:19.299Z,9.53
2018-11-12T20:10:51.350Z,10.03
2018-11-12T20:13:23.456Z,6.17
2018-11-12T20:15:56.557Z,8.33
2018-11-12T20:18:29.572Z,5.85
2018-11-12T20:21:02.273Z,7.40
2018-11-12T20:23:34.749Z,21.70
2018-11-12T20:26:06.915Z,9.93
2018-11-12T20:29:41.443Z,12.17
2018-11-12T20:32:14.444Z,10.37
2018-11-12T20:34:46.625Z,9.03
2018-11-12T20:37:18.660Z,8.50
2018-11-12T20:39:50.803Z,8.80
2018-11-12T20:42:22.753Z,16.13
2018-11-12T20:44:54.789Z,10.90
2018-11-12T20:47:26.717Z,16.70
2018-11-12T20:49:59.422Z,16.50
2018-11-12T20:52:31.648Z,13.80
2018-11-12T20:55:03.880Z,11.10
2018-11-12T20:57:36.989Z,16.80
2018-11-12T21:00:13.521Z,14.47
2018-11-12T21:02:46.229Z,12.37
2018-11-12T21:05:16.960Z,15.10
2018-11-12T21:07:47.967Z,16.27
2018-11-12T21:10:18.621Z,18.30
2018-11-12T21:12:48.846Z,12.63
2018-11-12T21:15:19.306Z,9.43
2018-11-12T21:17:48.878Z,11.00
2018-11-12T21:20:22.379Z,10.37
2018-11-12T21:22:51.906Z,12.83
2018-11-12T21:25:22.607Z,14.60
2018-11-12T21:27:52.127Z,17.43
2018-11-12T21:30:22.838Z,18.50
2018-11-12T21:32:52.375Z,16.10
2018-11-12T21:35:21.830Z,77.90
2018-11-12T21:37:52.711Z,21.90
2018-11-12T21:40:24.444Z,19.30
2018-11-12T21:42:53.957Z,14.67
2018-11-12T21:45:24.678Z,16.50
2018-11-12T21:47:54.165Z,16.30
2018-11-12T21:50:23.811Z,22.00
2018-11-12T21:52:53.502Z,19.92
2018-11-12T21:55:22.899Z,17.20
2018-11-12T21:57:52.338Z,17.87
2018-11-12T22:00:23.884Z,17.53
2018-11-12T22:02:54.707Z,19.30
2018-11-12T22:05:24.402Z,16.23
2018-11-12T22:07:53.822Z,13.40
2018-11-12T22:10:23.441Z,16.03
2018-11-12T22:12:53.626Z,14.73
2018-11-12T22:15:23.063Z,17.60
2018-11-12T22:17:52.561Z,14.60
2018-11-12T22:20:23.495Z,15.43
2018-11-12T22:22:52.877Z,13.67
2018-11-12T22:25:22.997Z,14.33
2018-11-12T22:27:53.124Z,11.27
2018-11-12T22:30:23.770Z,13.20
2018-11-12T22:32:53.991Z,15.20
2018-11-12T22:35:23.421Z,14.17
2018-11-12T22:37:52.896Z,13.37
2018-11-12T22:40:22.638Z,24.27
2018-11-12T22:42:52.918Z,19.60
2018-11-12T22:45:23.504Z,22.90
2018-11-12T22:47:53.151Z,17.67
2018-11-12T22:50:22.547Z,15.57
2018-11-12T22:52:52.006Z,16.10
2018-11-12T22:55:21.570Z,16.13
2018-11-12T22:57:50.947Z,15.80
2018-11-12T23:00:27.771Z,24.47
2018-11-12T23:02:57.745Z,16.80
2018-11-12T23:05:27.170Z,15.43
2018-11-12T23:07:56.884Z,21.50
2018-11-12T23:10:27.326Z,20.50
2018-11-12T23:12:56.723Z,20.70
2018-11-12T23:15:26.218Z,18.57
2018-11-12T23:17:55.614Z,17.40
2018-11-12T23:20:26.188Z,16.57
2018-11-12T23:22:55.751Z,18.10
2018-11-12T23:25:25.208Z,22.60
2018-11-12T23:27:55.146Z,21.60
2018-11-12T23:30:25.435Z,13.23
2018-11-12T23:32:54.832Z,12.03
2018-11-12T23:35:25.387Z,12.07
2018-11-12T23:37:54.793Z,14.70
2018-11-12T23:40:24.194Z,13.50
2018-11-12T23:42:53.575Z,13.73
2018-11-12T23:45:23.066Z,23.60
2018-11-12T23:47:52.471Z,15.07
2018-11-12T23:50:22.707Z,13.83
2018-11-12T23:52:52.872Z,17.90
2018-11-12T23:55:22.550Z,132.47
2018-11-12T23:57:52.120Z,83.13
